createdAt,value
2019-05-14T00:00:04.558Z,1032.52
2019-05-14T00:10:03.212Z,1032.49
2019-05-14T00:20:13.666Z,1032.39
2019-05-14T00:30:05.549Z,1032.33
2019-05-14T00:40:03.733Z,1032.23
2019-05-14T00:50:03.601Z,1032.13
2019-05-14T01:00:12.223Z,1032.01
2019-05-14T01:10:04.065Z,1032.10
2019-05-14T01:20:04.197Z,1032.05
2019-05-14T01:30:05.037Z,1031.93
2019-05-14T01:40:03.870Z,1031.85
2019-05-14T01:50:05.605Z,1031.82
2019-05-14T02:00:04.267Z,1031.65
2019-05-14T02:10:03.994Z,1031.53
2019-05-14T02:20:03.874Z,1031.43
2019-05-14T02:30:05.383Z,1031.48
2019-05-14T02:40:10.845Z,1031.45
2019-05-14T02:50:04.081Z,1031.45
2019-05-14T03:00:04.257Z,1031.42
2019-05-14T03:10:11.121Z,1031.36
2019-05-14T03:20:03.838Z,1031.23
2019-05-14T03:30:04.678Z,1031.15
2019-05-14T03:40:04.273Z,1031.15
2019-05-14T03:50:03.687Z,1031.15
2019-05-14T04:00:04.035Z,1031.17
2019-05-14T04:10:02.924Z,1031.02
2019-05-14T04:20:10.509Z,1031.00
2019-05-14T04:30:04.519Z,1030.99
2019-05-14T04:40:03.174Z,1030.91
2019-05-14T04:50:03.039Z,1030.94
2019-05-14T05:00:04.386Z,1030.95
2019-05-14T05:10:03.697Z,1030.84
2019-05-14T05:20:04.009Z,1030.76
2019-05-14T05:30:05.685Z,1030.67
2019-05-14T05:40:04.412Z,1030.72
2019-05-14T05:50:03.597Z,1030.75
2019-05-14T06:00:03.801Z,1030.73
2019-05-14T06:10:04.057Z,1030.69
2019-05-14T06:20:09.977Z,1030.64
2019-05-14T06:30:04.780Z,1030.58
2019-05-14T06:40:10.389Z,1030.43
2019-05-14T06:50:03.638Z,1030.27
2019-05-14T07:00:03.760Z,1030.23
2019-05-14T07:10:03.576Z,1030.40
2019-05-14T07:20:04.037Z,1030.21
2019-05-14T07:30:04.386Z,1030.23
2019-05-14T07:40:03.319Z,1030.09
2019-05-14T07:50:03.983Z,1030.05
2019-05-14T08:00:04.211Z,1030.02
2019-05-14T08:10:03.735Z,1029.95
2019-05-14T08:20:03.934Z,1029.67
2019-05-14T08:30:03.829Z,1029.59
2019-05-14T08:40:04.094Z,1029.72
2019-05-14T08:50:03.611Z,1030.03
2019-05-14T09:00:13.036Z,1029.97
2019-05-14T09:10:03.936Z,1029.69
2019-05-14T09:20:12.546Z,1029.51
2019-05-14T09:30:03.907Z,1029.48
2019-05-14T09:40:03.334Z,1029.53
2019-05-14T09:50:23.527Z,1029.45
2019-05-14T10:00:05.243Z,1029.43
2019-05-14T10:10:08.868Z,1029.19
2019-05-14T10:20:03.212Z,1029.08
2019-05-14T10:30:04.152Z,1028.94
2019-05-14T10:40:03.570Z,1029.02
2019-05-14T10:50:03.459Z,1029.17
2019-05-14T11:00:03.801Z,1029.12
2019-05-14T11:10:04.097Z,1028.85
2019-05-14T11:20:03.406Z,1028.57
2019-05-14T11:30:04.071Z,1028.33
2019-05-14T11:40:03.221Z,1028.30
2019-05-14T11:50:03.742Z,1028.24
2019-05-14T12:00:04.427Z,1027.97
2019-05-14T12:10:04.347Z,1027.69
2019-05-14T12:20:03.082Z,1027.61
2019-05-14T12:30:04.474Z,1027.73
2019-05-14T12:40:10.228Z,1027.55
2019-05-14T12:50:03.681Z,1027.53
2019-05-14T13:00:05.311Z,1027.27
2019-05-14T13:10:11.015Z,1027.07
2019-05-14T13:20:03.793Z,1026.99
2019-05-14T13:30:03.331Z,1026.92
2019-05-14T13:40:03.518Z,1026.84
2019-05-14T13:50:03.431Z,1027.21
2019-05-14T14:00:04.303Z,1026.98
2019-05-14T14:10:03.079Z,1026.76
2019-05-14T14:20:02.987Z,1026.63
2019-05-14T14:30:03.898Z,1026.53
2019-05-14T14:40:02.976Z,1026.67
2019-05-14T14:50:03.509Z,1026.70
2019-05-14T15:00:11.887Z,1026.84
2019-05-14T15:10:09.983Z,1027.41
2019-05-14T15:20:03.794Z,1027.09
2019-05-14T15:30:04.210Z,1026.81
2019-05-14T15:40:09.259Z,1026.65
2019-05-14T15:50:03.287Z,1026.76
2019-05-14T16:00:03.880Z,1027.15
2019-05-14T16:10:03.565Z,1027.05
2019-05-14T16:20:03.629Z,1026.89
2019-05-14T16:30:04.183Z,1026.61
2019-05-14T16:40:02.977Z,1026.45
2019-05-14T16:50:02.851Z,1026.39
2019-05-14T17:00:03.898Z,1026.33
2019-05-14T17:10:02.758Z,1026.25
2019-05-14T17:20:03.366Z,1026.24
2019-05-14T17:30:04.004Z,1026.41
2019-05-14T17:40:03.256Z,1026.52
2019-05-14T17:50:03.012Z,1026.47
2019-05-14T18:00:03.788Z,1026.51
2019-05-14T18:10:03.600Z,1026.52
2019-05-14T18:20:03.847Z,1026.48
2019-05-14T18:30:04.367Z,1026.42
2019-05-14T18:40:03.097Z,1026.43
2019-05-14T18:50:02.841Z,1026.62
2019-05-14T19:00:03.518Z,1026.67
2019-05-14T19:10:03.201Z,1026.68
2019-05-14T19:20:03.165Z,1026.75
2019-05-14T19:30:04.040Z,1026.75
2019-05-14T19:40:02.777Z,1026.78
2019-05-14T19:50:03.671Z,1026.82
2019-05-14T20:00:09.882Z,1026.88
2019-05-14T20:10:03.296Z,1026.85
2019-05-14T20:20:03.504Z,1026.80
2019-05-14T20:30:04.424Z,1026.74
2019-05-14T20:40:03.351Z,1026.67
2019-05-14T20:50:03.117Z,1026.64
2019-05-14T21:00:04.178Z,1026.64
2019-05-14T21:10:03.639Z,1026.58
2019-05-14T21:20:03.377Z,1026.63
2019-05-14T21:30:04.615Z,1026.66
2019-05-14T21:40:03.824Z,1026.69
2019-05-14T21:50:10.023Z,1026.62
2019-05-14T22:00:04.359Z,1026.55
2019-05-14T22:10:03.869Z,1026.50
2019-05-14T22:20:03.763Z,1026.40
2019-05-14T22:30:03.228Z,1026.41
2019-05-14T22:40:08.409Z,1026.33
2019-05-14T22:50:02.694Z,1026.27
2019-05-14T23:00:03.748Z,1026.24
2019-05-14T23:10:03.470Z,1026.11
2019-05-14T23:20:03.383Z,1026.09
2019-05-14T23:30:03.627Z,1026.12
2019-05-14T23:40:03.125Z,1026.03
2019-05-14T23:50:02.910Z,1025.87
